createdAt,value
2023-05-14T00:01:53.840Z,13.18
2023-05-14T00:04:20.831Z,13.57
2023-05-14T00:06:47.659Z,13.27
2023-05-14T00:09:14.429Z,14.38
2023-05-14T00:11:41.217Z,14.05
2023-05-14T00:14:08.189Z,13.48
2023-05-14T00:16:35.124Z,14.10
2023-05-14T00:19:02.027Z,13.88
2023-05-14T00:21:28.949Z,13.45
2023-05-14T00:23:55.736Z,14.18
2023-05-14T00:26:22.763Z,14.32
2023-05-14T00:28:49.818Z,14.65
2023-05-14T00:31:16.725Z,13.98
2023-05-14T00:33:43.626Z,13.20
2023-05-14T00:36:10.400Z,14.05
2023-05-14T00:38:37.375Z,15.00
2023-05-14T00:41:04.367Z,13.48
2023-05-14T00:43:33.188Z,14.70
2023-05-14T00:46:00.435Z,13.35
2023-05-14T00:48:27.555Z,13.73
2023-05-14T00:50:54.980Z,13.57
2023-05-14T00:53:22.083Z,13.90
2023-05-14T00:55:50.054Z,14.10
2023-05-14T00:58:18.978Z,14.45
2023-05-14T01:00:45.930Z,14.82
2023-05-14T01:03:13.161Z,14.50
2023-05-14T01:06:03.642Z,15.05
2023-05-14T01:08:52.343Z,14.80
2023-05-14T01:11:29.107Z,15.60
2023-05-14T01:14:16.599Z,15.55
2023-05-14T01:16:45.625Z,15.25
2023-05-14T01:19:33.655Z,16.20
2023-05-14T01:22:00.480Z,16.33
2023-05-14T01:24:27.720Z,16.00
2023-05-14T01:27:01.207Z,16.58
2023-05-14T01:29:31.084Z,16.33
2023-05-14T01:31:59.703Z,17.63
2023-05-14T01:34:28.552Z,17.45
2023-05-14T01:36:56.794Z,17.45
2023-05-14T01:39:25.084Z,18.08
2023-05-14T01:41:53.426Z,17.73
2023-05-14T01:44:21.584Z,16.40
2023-05-14T01:46:48.378Z,15.63
2023-05-14T01:49:16.201Z,17.05
2023-05-14T01:51:43.035Z,16.15
2023-05-14T01:54:09.869Z,16.23
2023-05-14T01:56:36.724Z,16.60
2023-05-14T01:59:03.482Z,17.85
2023-05-14T02:01:30.452Z,15.85
2023-05-14T02:04:01.339Z,16.27
2023-05-14T02:06:28.415Z,16.30
2023-05-14T02:08:55.240Z,18.77
2023-05-14T02:11:22.552Z,19.80
2023-05-14T02:13:49.405Z,18.02
2023-05-14T02:16:16.366Z,19.15
2023-05-14T02:18:43.242Z,16.55
2023-05-14T02:21:10.314Z,18.15
2023-05-14T02:23:41.586Z,17.85
2023-05-14T02:26:10.289Z,18.02
2023-05-14T02:28:37.185Z,16.80
2023-05-14T02:31:04.953Z,17.67
2023-05-14T02:33:31.846Z,18.20
2023-05-14T02:35:59.032Z,18.80
2023-05-14T02:38:26.805Z,17.08
2023-05-14T02:40:53.672Z,18.42
2023-05-14T02:43:20.421Z,17.98
2023-05-14T02:45:47.553Z,17.73
2023-05-14T02:48:14.646Z,18.13
2023-05-14T02:50:41.650Z,18.08
2023-05-14T02:53:08.811Z,18.17
2023-05-14T02:55:36.263Z,17.65
2023-05-14T02:58:03.164Z,18.55
2023-05-14T03:00:30.040Z,17.30
2023-05-14T03:02:57.298Z,17.38
2023-05-14T03:05:24.794Z,17.17
2023-05-14T03:07:53.758Z,17.75
2023-05-14T03:10:21.024Z,17.15
2023-05-14T03:12:48.236Z,17.05
2023-05-14T03:15:15.188Z,16.80
2023-05-14T03:17:42.026Z,17.13
2023-05-14T03:20:09.199Z,17.05
2023-05-14T03:22:36.185Z,17.10
2023-05-14T03:25:02.988Z,16.90
2023-05-14T03:27:29.766Z,17.63
2023-05-14T03:29:56.572Z,17.00
2023-05-14T03:32:23.401Z,17.63
2023-05-14T03:34:50.284Z,16.25
2023-05-14T03:37:17.062Z,16.55
2023-05-14T03:39:43.875Z,16.95
2023-05-14T03:42:10.829Z,17.35
2023-05-14T03:44:37.861Z,17.65
2023-05-14T03:47:04.951Z,17.05
2023-05-14T03:49:32.062Z,17.65
2023-05-14T03:51:59.562Z,17.02
2023-05-14T03:54:27.042Z,17.90
2023-05-14T03:56:53.846Z,17.67
2023-05-14T03:59:20.619Z,17.88
2023-05-14T04:01:47.699Z,16.38
2023-05-14T04:04:14.653Z,16.38
2023-05-14T04:06:41.638Z,16.80
2023-05-14T04:09:08.443Z,16.92
2023-05-14T04:11:35.513Z,16.58
2023-05-14T04:14:04.820Z,16.38
2023-05-14T04:16:31.697Z,15.88
2023-05-14T04:18:58.823Z,15.98
2023-05-14T04:21:25.701Z,15.88
2023-05-14T04:23:52.680Z,16.80
2023-05-14T04:26:19.558Z,16.40
2023-05-14T04:28:46.315Z,17.35
2023-05-14T04:31:13.376Z,16.40
2023-05-14T04:33:40.198Z,15.23
2023-05-14T04:36:07.332Z,15.63
2023-05-14T04:38:34.678Z,16.05
2023-05-14T04:41:02.131Z,15.25
2023-05-14T04:43:29.045Z,14.68
2023-05-14T04:45:56.444Z,15.18
2023-05-14T04:48:23.341Z,15.10
2023-05-14T04:50:50.194Z,14.85
2023-05-14T04:53:17.082Z,14.00
2023-05-14T04:55:43.820Z,14.27
2023-05-14T04:58:10.740Z,15.25
2023-05-14T05:00:37.685Z,14.30
2023-05-14T05:03:04.759Z,15.02
2023-05-14T05:05:31.772Z,14.82
2023-05-14T05:07:58.586Z,14.50
2023-05-14T05:10:25.899Z,14.48
2023-05-14T05:12:53.005Z,13.65
2023-05-14T05:15:19.909Z,14.00
2023-05-14T05:17:47.011Z,15.23
2023-05-14T05:20:13.913Z,15.43
2023-05-14T05:22:48.530Z,13.93
2023-05-14T05:25:15.640Z,14.13
2023-05-14T05:27:42.436Z,14.45
2023-05-14T05:30:09.644Z,13.95
2023-05-14T05:32:36.810Z,14.75
2023-05-14T05:35:03.784Z,14.52
2023-05-14T05:37:31.008Z,13.77
2023-05-14T05:39:57.796Z,16.92
2023-05-14T05:42:24.839Z,13.40
2023-05-14T05:44:51.781Z,12.98
2023-05-14T05:47:18.583Z,13.82
2023-05-14T05:49:45.461Z,12.27
2023-05-14T05:52:12.275Z,11.38
2023-05-14T05:54:39.910Z,12.57
2023-05-14T05:57:06.834Z,12.82
2023-05-14T05:59:33.888Z,11.75
2023-05-14T06:02:03.633Z,11.57
2023-05-14T06:04:30.598Z,12.50
2023-05-14T06:06:57.367Z,11.13
2023-05-14T06:09:24.155Z,10.82
2023-05-14T06:11:51.090Z,10.35
2023-05-14T06:14:18.043Z,9.90
2023-05-14T06:16:45.123Z,9.23
2023-05-14T06:19:12.332Z,9.80
2023-05-14T06:21:39.328Z,8.95
2023-05-14T06:24:06.586Z,10.18
2023-05-14T06:26:33.372Z,9.68
2023-05-14T06:29:00.449Z,9.90
2023-05-14T06:31:27.303Z,10.10
2023-05-14T06:33:54.215Z,11.90
2023-05-14T06:36:21.004Z,10.75
2023-05-14T06:38:47.821Z,9.90
2023-05-14T06:41:14.658Z,11.30
2023-05-14T06:43:41.636Z,11.07
2023-05-14T06:46:08.423Z,11.23
2023-05-14T06:48:35.528Z,11.13
2023-05-14T06:51:03.389Z,9.95
2023-05-14T06:53:30.662Z,12.35
2023-05-14T06:55:57.487Z,10.32
2023-05-14T06:58:24.339Z,11.07
2023-05-14T07:00:51.161Z,10.82
2023-05-14T07:03:18.012Z,11.90
2023-05-14T07:05:46.752Z,12.52
2023-05-14T07:08:13.814Z,12.93
2023-05-14T07:10:40.877Z,11.73
2023-05-14T07:13:08.371Z,11.00
2023-05-14T07:15:35.280Z,10.48
2023-05-14T07:18:02.196Z,10.90
2023-05-14T07:20:29.309Z,11.38
2023-05-14T07:22:56.290Z,11.32
2023-05-14T07:25:23.115Z,10.65
2023-05-14T07:27:49.965Z,9.65
2023-05-14T07:30:16.891Z,10.45
2023-05-14T07:32:43.941Z,9.32
2023-05-14T07:35:11.938Z,9.05
2023-05-14T07:37:39.053Z,8.98
2023-05-14T07:40:06.578Z,8.80
2023-05-14T07:42:36.925Z,7.82
2023-05-14T07:45:05.314Z,7.38
2023-05-14T07:47:32.808Z,7.60
2023-05-14T07:50:02.578Z,7.03
2023-05-14T07:52:29.835Z,6.80
2023-05-14T07:54:56.721Z,6.97
2023-05-14T07:57:23.924Z,6.93
2023-05-14T07:59:51.516Z,7.25
2023-05-14T08:02:18.676Z,6.30
2023-05-14T08:04:45.936Z,5.63
2023-05-14T08:07:12.882Z,5.35
2023-05-14T08:09:40.308Z,5.53
2023-05-14T08:12:07.657Z,5.53
2023-05-14T08:14:34.990Z,4.47
2023-05-14T08:17:02.225Z,5.43
2023-05-14T08:19:29.658Z,4.88
2023-05-14T08:21:56.577Z,4.20
2023-05-14T08:24:23.448Z,4.50
2023-05-14T08:26:50.526Z,3.95
2023-05-14T08:29:17.274Z,4.30
2023-05-14T08:31:44.295Z,4.05
2023-05-14T08:34:11.188Z,3.85
2023-05-14T08:36:39.371Z,3.92
2023-05-14T08:39:07.883Z,3.75
2023-05-14T08:41:35.341Z,5.18
2023-05-14T08:44:28.193Z,4.10
2023-05-14T08:46:55.324Z,4.05
2023-05-14T08:49:32.980Z,3.75
2023-05-14T08:52:00.518Z,3.60
2023-05-14T08:54:29.001Z,3.42
2023-05-14T08:56:59.795Z,4.00
2023-05-14T08:59:26.908Z,3.83
2023-05-14T09:01:55.093Z,2.90
2023-05-14T09:04:23.715Z,3.55
2023-05-14T09:06:53.657Z,3.33
2023-05-14T09:09:23.960Z,4.00
2023-05-14T09:11:52.981Z,4.75
2023-05-14T09:14:20.587Z,3.40
2023-05-14T09:16:49.860Z,3.63
2023-05-14T09:19:19.407Z,3.50
2023-05-14T09:21:48.357Z,2.85
2023-05-14T09:24:52.816Z,3.30
2023-05-14T09:27:20.977Z,3.25
2023-05-14T09:29:48.657Z,3.25
2023-05-14T09:32:15.692Z,3.08
2023-05-14T09:34:42.484Z,3.20
2023-05-14T09:37:09.997Z,3.47
2023-05-14T09:39:38.090Z,3.13
2023-05-14T09:42:05.513Z,2.80
2023-05-14T09:44:36.417Z,3.60
2023-05-14T09:47:05.456Z,3.38
2023-05-14T09:49:32.582Z,3.28
2023-05-14T09:52:00.970Z,3.30
2023-05-14T09:54:28.343Z,3.28
2023-05-14T09:56:55.973Z,3.70
2023-05-14T09:59:22.891Z,3.38
2023-05-14T10:01:51.472Z,3.03
2023-05-14T10:04:19.646Z,3.17
2023-05-14T10:06:51.843Z,3.47
2023-05-14T10:09:28.808Z,3.55
2023-05-14T10:12:01.308Z,3.25
2023-05-14T10:14:36.163Z,3.25
2023-05-14T10:17:05.074Z,3.38
2023-05-14T10:19:35.323Z,3.25
2023-05-14T10:22:10.295Z,3.35
2023-05-14T10:24:39.226Z,3.58
2023-05-14T10:27:09.193Z,2.70
2023-05-14T10:29:38.164Z,3.00
2023-05-14T10:32:09.155Z,3.40
2023-05-14T10:34:52.671Z,2.83
2023-05-14T10:37:23.638Z,2.80
2023-05-14T10:39:58.273Z,2.67
2023-05-14T10:42:37.512Z,2.55
2023-05-14T10:45:07.738Z,3.10
2023-05-14T10:47:45.931Z,2.72
2023-05-14T10:50:15.292Z,2.90
2023-05-14T10:52:44.004Z,2.90
2023-05-14T10:55:14.635Z,3.10
2023-05-14T10:57:44.384Z,3.00
2023-05-14T11:00:13.030Z,3.25
2023-05-14T11:02:42.228Z,2.60
2023-05-14T11:05:16.065Z,2.72
2023-05-14T11:07:48.136Z,2.90
2023-05-14T11:10:19.623Z,2.50
2023-05-14T11:12:51.095Z,2.95
2023-05-14T11:15:20.637Z,2.72
2023-05-14T11:17:49.089Z,2.93
2023-05-14T11:20:18.162Z,3.10
2023-05-14T11:22:46.888Z,2.67
2023-05-14T11:25:14.840Z,2.97
2023-05-14T11:27:44.462Z,3.08
2023-05-14T11:30:20.643Z,3.17
2023-05-14T11:32:49.335Z,2.67
2023-05-14T11:35:17.445Z,2.78
2023-05-14T11:37:50.338Z,3.28
2023-05-14T11:40:18.367Z,3.05
2023-05-14T11:42:45.848Z,3.10
2023-05-14T11:45:14.373Z,3.20
2023-05-14T11:47:42.251Z,2.97
2023-05-14T11:50:09.929Z,2.95
2023-05-14T11:52:41.201Z,2.63
2023-05-14T11:55:12.261Z,3.22
2023-05-14T11:57:39.335Z,3.38
2023-05-14T12:00:16.696Z,3.00
2023-05-14T12:02:43.823Z,3.03
2023-05-14T12:05:13.148Z,3.40
2023-05-14T12:07:40.188Z,3.03
2023-05-14T12:10:07.707Z,2.42
2023-05-14T12:12:38.910Z,2.97
2023-05-14T12:15:17.068Z,2.63
2023-05-14T12:17:50.751Z,2.75
2023-05-14T12:20:17.890Z,2.88
2023-05-14T12:22:44.664Z,3.47
2023-05-14T12:25:16.242Z,2.92
2023-05-14T12:27:45.355Z,3.40
2023-05-14T12:30:21.277Z,3.15
2023-05-14T12:32:52.087Z,3.20
2023-05-14T12:35:19.164Z,3.53
2023-05-14T12:37:46.092Z,2.75
2023-05-14T12:40:13.252Z,2.97
2023-05-14T12:42:40.238Z,2.90
2023-05-14T12:45:08.718Z,3.15
2023-05-14T12:47:37.076Z,2.88
2023-05-14T12:50:05.980Z,3.08
2023-05-14T12:52:38.290Z,3.50
2023-05-14T12:55:09.339Z,3.08
2023-05-14T12:57:38.359Z,3.13
2023-05-14T13:00:09.881Z,2.40
2023-05-14T13:02:43.192Z,3.13
2023-05-14T13:05:11.537Z,2.50
2023-05-14T13:07:38.892Z,2.80
2023-05-14T13:10:06.666Z,2.50
2023-05-14T13:12:33.634Z,3.40
2023-05-14T13:15:00.585Z,3.33
2023-05-14T13:17:27.705Z,2.58
2023-05-14T13:19:54.584Z,2.80
2023-05-14T13:22:21.477Z,2.85
2023-05-14T13:24:48.267Z,3.15
2023-05-14T13:27:15.224Z,2.75
2023-05-14T13:29:42.373Z,3.10
2023-05-14T13:32:09.272Z,2.95
2023-05-14T13:34:36.461Z,2.72
2023-05-14T13:37:04.044Z,3.45
2023-05-14T13:39:31.144Z,2.78
2023-05-14T13:41:58.224Z,2.72
2023-05-14T13:44:25.213Z,3.33
2023-05-14T13:46:52.472Z,2.97
2023-05-14T13:49:19.589Z,3.38
2023-05-14T13:51:46.470Z,3.05
2023-05-14T13:54:13.407Z,3.30
2023-05-14T13:56:40.518Z,3.38
2023-05-14T13:59:07.579Z,3.38
2023-05-14T14:01:34.540Z,3.75
2023-05-14T14:04:01.525Z,2.88
2023-05-14T14:06:30.886Z,3.55
2023-05-14T14:08:58.018Z,3.63
2023-05-14T14:11:31.137Z,3.28
2023-05-14T14:13:58.155Z,3.60
2023-05-14T14:16:26.562Z,3.25
2023-05-14T14:18:53.512Z,3.40
2023-05-14T14:21:21.260Z,3.92
2023-05-14T14:23:49.679Z,4.15
2023-05-14T14:26:16.596Z,4.38
2023-05-14T14:28:48.061Z,3.58
2023-05-14T14:31:16.412Z,3.40
2023-05-14T14:33:46.713Z,2.92
2023-05-14T14:36:13.662Z,3.58
2023-05-14T14:38:42.752Z,3.55
2023-05-14T14:41:10.434Z,3.50
2023-05-14T14:43:38.572Z,3.53
2023-05-14T14:46:06.003Z,3.45
2023-05-14T14:48:37.668Z,3.83
2023-05-14T14:51:06.260Z,3.45
2023-05-14T14:53:34.559Z,3.45
2023-05-14T14:56:02.070Z,3.30
2023-05-14T14:58:31.241Z,3.20
2023-05-14T15:00:58.790Z,3.58
2023-05-14T15:03:26.082Z,3.38
2023-05-14T15:05:53.853Z,2.55
2023-05-14T15:08:24.753Z,3.40
2023-05-14T15:10:51.651Z,2.45
2023-05-14T15:13:19.199Z,3.47
2023-05-14T15:15:46.019Z,2.92
2023-05-14T15:18:13.421Z,2.88
2023-05-14T15:20:40.513Z,3.08
2023-05-14T15:23:07.771Z,2.92
2023-05-14T15:25:40.756Z,5.68
2023-05-14T15:28:07.946Z,4.53
2023-05-14T15:30:35.225Z,3.47
2023-05-14T15:33:02.221Z,3.00
2023-05-14T15:35:29.089Z,3.20
2023-05-14T15:37:59.072Z,2.97
2023-05-14T15:40:27.668Z,3.40
2023-05-14T15:42:54.891Z,3.13
2023-05-14T15:45:22.006Z,3.25
2023-05-14T15:47:48.984Z,3.13
2023-05-14T15:50:16.148Z,3.25
2023-05-14T15:52:44.910Z,3.00
2023-05-14T15:55:12.396Z,4.03
2023-05-14T15:57:39.429Z,4.03
2023-05-14T16:00:13.031Z,3.80
2023-05-14T16:02:40.585Z,3.58
2023-05-14T16:05:08.698Z,3.75
2023-05-14T16:07:36.670Z,4.13
2023-05-14T16:10:04.179Z,4.28
2023-05-14T16:12:31.763Z,4.35
2023-05-14T16:14:58.717Z,4.13
2023-05-14T16:17:26.794Z,4.07
2023-05-14T16:19:56.333Z,3.90
2023-05-14T16:22:23.762Z,13.05
2023-05-14T16:24:50.972Z,4.25
2023-05-14T16:27:19.277Z,5.47
2023-05-14T16:29:46.295Z,6.57
2023-05-14T16:32:13.510Z,4.22
2023-05-14T16:34:40.784Z,3.15
2023-05-14T16:37:08.232Z,3.08
2023-05-14T16:39:36.094Z,3.38
2023-05-14T16:42:11.786Z,3.50
2023-05-14T16:44:39.756Z,3.00
2023-05-14T16:47:07.489Z,4.90
2023-05-14T16:49:34.372Z,4.07
2023-05-14T16:52:01.242Z,4.00
2023-05-14T16:54:28.074Z,4.50
2023-05-14T16:56:54.983Z,6.78
2023-05-14T16:59:23.060Z,5.35
2023-05-14T17:01:51.290Z,4.22
2023-05-14T17:04:21.992Z,6.13
2023-05-14T17:06:49.276Z,5.45
2023-05-14T17:09:19.335Z,4.75
2023-05-14T17:11:46.251Z,6.15
2023-05-14T17:14:13.832Z,5.50
2023-05-14T17:16:43.322Z,5.65
2023-05-14T17:19:19.365Z,5.28
2023-05-14T17:22:02.624Z,5.15
2023-05-14T17:24:29.562Z,7.78
2023-05-14T17:27:00.224Z,6.47
2023-05-14T17:29:27.267Z,5.28
2023-05-14T17:31:58.171Z,5.13
2023-05-14T17:37:22.777Z,6.18
2023-05-14T17:39:57.659Z,6.32
2023-05-14T17:42:24.887Z,6.97
2023-05-14T17:44:54.609Z,7.85
2023-05-14T17:47:23.322Z,6.68
2023-05-14T17:49:53.893Z,6.05
2023-05-14T17:52:21.794Z,6.38
2023-05-14T17:54:50.412Z,5.63
2023-05-14T17:57:19.334Z,6.43
2023-05-14T17:59:59.630Z,6.72
2023-05-14T18:02:34.326Z,6.50
2023-05-14T18:05:03.809Z,6.00
2023-05-14T18:07:35.399Z,6.93
2023-05-14T18:10:06.408Z,6.15
2023-05-14T18:12:36.141Z,6.28
2023-05-14T18:15:03.155Z,6.05
2023-05-14T18:17:30.001Z,6.18
2023-05-14T18:19:57.087Z,6.30
2023-05-14T18:22:26.350Z,5.68
2023-05-14T18:24:55.071Z,6.22
2023-05-14T18:27:23.797Z,6.25
2023-05-14T18:29:57.437Z,7.22
2023-05-14T18:32:45.911Z,6.68
2023-05-14T18:35:16.527Z,6.47
2023-05-14T18:37:44.641Z,5.90
2023-05-14T18:53:59.402Z,6.93
2023-05-14T18:56:29.705Z,6.10
2023-05-14T18:59:00.028Z,6.13
2023-05-14T19:01:34.552Z,6.22
2023-05-14T19:04:05.626Z,6.75
2023-05-14T19:06:33.059Z,5.88
2023-05-14T19:09:00.829Z,5.63
2023-05-14T19:11:27.814Z,5.85
2023-05-14T19:13:54.762Z,9.50
2023-05-14T19:16:21.912Z,8.05
2023-05-14T19:18:49.208Z,8.77
2023-05-14T19:21:16.312Z,7.00
2023-05-14T19:23:43.341Z,5.93
2023-05-14T19:26:10.195Z,7.00
2023-05-14T19:28:42.705Z,6.65
2023-05-14T19:31:09.593Z,7.25
2023-05-14T19:33:39.240Z,6.80
2023-05-14T19:36:06.448Z,5.68
2023-05-14T19:38:49.349Z,6.13
2023-05-14T19:41:16.383Z,6.97
2023-05-14T19:43:43.384Z,6.63
2023-05-14T19:46:13.990Z,6.28
2023-05-14T19:48:48.913Z,7.55
2023-05-14T19:51:15.916Z,5.93
2023-05-14T19:53:42.890Z,6.60
2023-05-14T19:56:09.819Z,6.22
2023-05-14T19:58:36.687Z,6.25
2023-05-14T20:01:07.431Z,8.13
2023-05-14T20:03:34.791Z,6.18
2023-05-14T20:06:02.073Z,6.25
2023-05-14T20:08:29.319Z,5.93
2023-05-14T20:10:56.577Z,6.28
2023-05-14T20:13:25.234Z,6.05
2023-05-14T20:15:52.496Z,5.45
2023-05-14T20:18:19.436Z,6.80
2023-05-14T20:20:46.925Z,5.55
2023-05-14T20:23:13.898Z,6.93
2023-05-14T20:28:26.111Z,6.35
2023-05-14T20:33:30.758Z,6.45
2023-05-14T20:35:57.727Z,6.05
2023-05-14T20:38:25.715Z,7.03
2023-05-14T20:40:52.645Z,6.50
2023-05-14T20:43:19.569Z,6.18
2023-05-14T20:45:46.466Z,6.30
2023-05-14T20:48:16.444Z,6.20
2023-05-14T20:50:44.580Z,6.07
2023-05-14T20:53:11.490Z,6.15
2023-05-14T20:55:39.624Z,6.30
2023-05-14T20:58:06.515Z,5.82
2023-05-14T21:00:33.407Z,5.63
2023-05-14T21:03:00.530Z,6.10
2023-05-14T21:05:27.735Z,5.93
2023-05-14T21:07:54.687Z,6.55
2023-05-14T21:10:21.678Z,6.28
2023-05-14T21:12:48.536Z,5.85
2023-05-14T21:15:16.096Z,5.40
2023-05-14T21:17:42.988Z,5.60
2023-05-14T21:20:12.028Z,5.95
2023-05-14T21:22:39.019Z,5.65
2023-05-14T21:25:06.292Z,5.93
2023-05-14T21:27:33.414Z,6.35
2023-05-14T21:30:00.348Z,6.00
2023-05-14T21:32:27.697Z,7.00
2023-05-14T21:34:54.754Z,6.63
2023-05-14T21:37:22.483Z,7.10
2023-05-14T21:39:49.455Z,6.47
2023-05-14T21:42:16.621Z,7.03
2023-05-14T21:44:43.522Z,6.75
2023-05-14T21:47:13.414Z,6.90
2023-05-14T21:49:40.319Z,7.78
2023-05-14T21:52:07.530Z,7.38
2023-05-14T21:54:34.365Z,7.68
2023-05-14T21:57:01.794Z,7.85
2023-05-14T21:59:28.814Z,7.97
2023-05-14T22:02:06.798Z,8.63
2023-05-14T22:04:35.437Z,8.00
2023-05-14T22:07:03.225Z,7.70
2023-05-14T22:09:30.460Z,8.68
2023-05-14T22:11:58.358Z,8.88
2023-05-14T22:14:27.005Z,8.27
2023-05-14T22:16:54.191Z,9.20
2023-05-14T22:19:21.319Z,8.77
2023-05-14T22:21:48.403Z,8.90
2023-05-14T22:24:17.108Z,9.43
2023-05-14T22:26:44.294Z,9.52
2023-05-14T22:29:11.375Z,10.45
2023-05-14T22:31:38.626Z,9.23
2023-05-14T22:34:05.817Z,10.00
2023-05-14T22:36:32.819Z,8.50
2023-05-14T22:38:59.780Z,9.70
2023-05-14T22:41:29.783Z,10.30
2023-05-14T22:43:56.774Z,10.30
2023-05-14T22:46:23.795Z,10.75
2023-05-14T22:48:50.738Z,10.05
2023-05-14T22:51:18.016Z,10.75
2023-05-14T22:53:45.610Z,10.45
2023-05-14T22:56:12.503Z,10.80
2023-05-14T22:58:39.457Z,11.55
2023-05-14T23:01:06.622Z,10.93
2023-05-14T23:03:33.478Z,11.30
2023-05-14T23:06:00.506Z,11.00
2023-05-14T23:08:27.462Z,10.90
2023-05-14T23:10:54.419Z,11.20
2023-05-14T23:13:21.428Z,11.70
2023-05-14T23:15:48.876Z,11.70
2023-05-14T23:18:16.066Z,12.32
2023-05-14T23:20:43.124Z,12.52
2023-05-14T23:23:10.071Z,12.93
2023-05-14T23:25:37.103Z,13.32
2023-05-14T23:28:04.088Z,14.40
2023-05-14T23:30:30.865Z,13.23
2023-05-14T23:32:57.720Z,14.95
2023-05-14T23:35:25.014Z,13.63
2023-05-14T23:37:52.399Z,14.48
2023-05-14T23:40:19.358Z,15.93
2023-05-14T23:42:46.642Z,14.07
2023-05-14T23:45:14.027Z,13.23
2023-05-14T23:48:00.873Z,13.60
2023-05-14T23:50:27.935Z,13.55
2023-05-14T23:52:55.920Z,12.43
2023-05-14T23:55:23.513Z,13.75
2023-05-14T23:57:50.641Z,13.85
